createdAt,value
2017-11-14T00:00:48.533Z,-5.86
2017-11-14T00:01:49.136Z,-5.84
2017-11-14T00:02:49.734Z,-5.90
2017-11-14T00:03:50.334Z,-5.76
2017-11-14T00:04:50.934Z,-5.86
2017-11-14T00:05:51.534Z,-5.85
2017-11-14T00:06:52.132Z,-5.92
2017-11-14T00:07:52.733Z,-5.95
2017-11-14T00:08:53.334Z,-5.97
2017-11-14T00:09:53.966Z,-5.86
2017-11-14T00:10:54.565Z,-5.82
2017-11-14T00:11:55.168Z,-5.81
2017-11-14T00:12:55.774Z,-5.82
2017-11-14T00:13:56.391Z,-5.76
2017-11-14T00:14:56.973Z,-5.76
2017-11-14T00:15:57.578Z,-5.72
2017-11-14T00:16:58.175Z,-5.72
2017-11-14T00:17:58.783Z,-5.74
2017-11-14T00:18:59.405Z,-5.76
2017-11-14T00:20:00.008Z,-5.66
2017-11-14T00:21:00.617Z,-5.74
2017-11-14T00:22:01.219Z,-5.75
2017-11-14T00:23:01.817Z,-5.75
2017-11-14T00:24:02.414Z,-5.68
2017-11-14T00:25:03.016Z,-5.72
2017-11-14T00:26:03.616Z,-5.85
2017-11-14T00:27:04.218Z,-5.90
2017-11-14T00:28:04.813Z,-5.81
2017-11-14T00:29:05.419Z,-5.86
2017-11-14T00:30:06.055Z,-5.85
2017-11-14T00:31:06.653Z,-5.92
2017-11-14T00:32:07.254Z,-5.89
2017-11-14T00:33:07.856Z,-5.92
2017-11-14T00:34:08.457Z,-5.93
2017-11-14T00:35:09.055Z,-5.92
2017-11-14T00:36:09.658Z,-5.81
2017-11-14T00:37:10.261Z,-6.03
2017-11-14T00:38:10.856Z,-5.93
2017-11-14T00:39:11.455Z,-5.93
2017-11-14T00:40:12.056Z,-5.97
2017-11-14T00:41:12.685Z,-5.97
2017-11-14T00:42:13.323Z,-6.05
2017-11-14T00:43:13.922Z,-6.03
2017-11-14T00:44:14.522Z,-6.07
2017-11-14T00:45:15.126Z,-6.02
2017-11-14T00:46:15.729Z,-6.07
2017-11-14T00:47:16.332Z,-6.02
2017-11-14T00:48:16.931Z,-6.11
2017-11-14T00:49:17.529Z,-6.03
2017-11-14T00:50:18.130Z,-5.99
2017-11-14T00:51:18.729Z,-5.99
2017-11-14T00:52:19.330Z,-6.02
2017-11-14T00:53:19.930Z,-6.05
2017-11-14T00:54:20.533Z,-6.03
2017-11-14T00:55:21.130Z,-5.99
2017-11-14T00:56:21.731Z,-5.97
2017-11-14T00:57:22.332Z,-6.02
2017-11-14T00:58:22.933Z,-6.02
2017-11-14T00:59:23.530Z,-6.03
2017-11-14T01:00:24.164Z,-6.07
2017-11-14T01:01:24.765Z,-6.07
2017-11-14T02:03:05.605Z,-6.10
2017-11-14T02:04:06.203Z,-6.17
2017-11-14T02:05:06.808Z,-6.15
2017-11-14T02:06:07.404Z,-6.21
2017-11-14T02:07:08.007Z,-6.18
2017-11-14T02:08:08.609Z,-6.24
2017-11-14T02:09:09.210Z,-6.20
2017-11-14T02:10:09.816Z,-6.17
2017-11-14T02:11:10.415Z,-6.17
2017-11-14T02:12:11.013Z,-6.17
2017-11-14T02:13:11.614Z,-6.18
2017-11-14T02:14:12.214Z,-6.20
2017-11-14T02:15:12.818Z,-6.24
2017-11-14T02:16:13.416Z,-6.21
2017-11-14T02:17:14.019Z,-6.23
2017-11-14T02:18:14.653Z,-6.23
2017-11-14T02:19:15.253Z,-6.21
2017-11-14T02:20:15.855Z,-6.18
2017-11-14T02:21:16.459Z,-6.13
2017-11-14T02:22:17.058Z,-6.20
2017-11-14T02:23:17.655Z,-6.24
2017-11-14T02:24:18.262Z,-6.26
2017-11-14T02:25:18.857Z,-6.23
2017-11-14T02:26:19.457Z,-6.18
2017-11-14T02:27:20.059Z,-6.29
2017-11-14T02:28:20.689Z,-6.21
2017-11-14T02:29:21.320Z,-6.41
2017-11-14T02:30:21.919Z,-6.32
2017-11-14T02:31:22.519Z,-6.31
2017-11-14T02:32:23.118Z,-6.28
2017-11-14T02:33:23.724Z,-6.20
2017-11-14T02:34:24.325Z,-6.34
2017-11-14T02:35:24.936Z,-6.21
2017-11-14T02:36:25.526Z,-6.18
2017-11-14T02:37:26.129Z,-6.26
2017-11-14T02:38:26.732Z,-6.26
2017-11-14T02:39:27.334Z,-6.28
2017-11-14T02:40:27.931Z,-6.28
2017-11-14T02:41:28.537Z,-6.23
2017-11-14T02:42:29.136Z,-6.31
2017-11-14T02:43:29.733Z,-6.28
2017-11-14T02:44:30.335Z,-6.26
2017-11-14T02:45:30.935Z,-6.26
2017-11-14T02:46:31.536Z,-6.28
2017-11-14T02:47:32.142Z,-6.34
2017-11-14T02:48:32.740Z,-6.29
2017-11-14T02:49:33.342Z,-6.36
2017-11-14T02:50:33.944Z,-6.34
2017-11-14T02:51:34.548Z,-6.35
2017-11-14T02:52:35.149Z,-6.41
2017-11-14T02:53:35.754Z,-6.46
2017-11-14T02:54:36.352Z,-6.42
2017-11-14T02:55:36.948Z,-6.42
2017-11-14T02:56:37.581Z,-6.47
2017-11-14T02:57:38.189Z,-6.47
2017-11-14T02:58:38.779Z,-6.49
2017-11-14T02:59:39.410Z,-6.47
2017-11-14T03:00:40.009Z,-6.50
2017-11-14T03:01:40.608Z,-6.50
2017-11-14T03:02:41.212Z,-6.47
2017-11-14T03:03:41.846Z,-6.44
2017-11-14T03:04:42.441Z,-6.54
2017-11-14T03:05:43.040Z,-6.53
2017-11-14T03:06:43.650Z,-6.47
2017-11-14T03:07:44.276Z,-6.52
2017-11-14T03:08:44.883Z,-6.50
2017-11-14T03:09:45.489Z,-6.56
2017-11-14T03:10:46.091Z,-6.50
2017-11-14T03:11:46.690Z,-6.49
2017-11-14T03:12:47.328Z,-6.52
2017-11-14T03:13:47.924Z,-6.58
2017-11-14T03:14:48.539Z,-6.58
2017-11-14T03:15:49.132Z,-6.54
2017-11-14T03:16:49.732Z,-6.58
2017-11-14T03:17:50.334Z,-6.63
2017-11-14T03:18:50.931Z,-6.56
2017-11-14T03:19:51.560Z,-6.61
2017-11-14T03:20:52.134Z,-6.60
2017-11-14T03:21:52.734Z,-6.56
2017-11-14T03:22:53.332Z,-6.63
2017-11-14T03:23:53.932Z,-6.60
2017-11-14T03:24:54.536Z,-6.61
2017-11-14T03:25:55.135Z,-6.66
2017-11-14T03:26:55.737Z,-6.69
2017-11-14T03:27:56.336Z,-6.68
2017-11-14T03:28:56.935Z,-6.60
2017-11-14T03:29:57.535Z,-6.63
2017-11-14T03:30:58.139Z,-6.76
2017-11-14T03:31:58.743Z,-6.71
2017-11-14T03:32:59.377Z,-6.76
2017-11-14T03:33:59.974Z,-6.84
2017-11-14T03:35:00.572Z,-6.75
2017-11-14T03:36:01.178Z,-6.86
2017-11-14T03:37:01.781Z,-6.79
2017-11-14T03:38:02.381Z,-6.86
2017-11-14T03:39:02.984Z,-6.84
2017-11-14T03:40:03.613Z,-6.86
2017-11-14T03:41:04.250Z,-6.87
2017-11-14T03:42:04.853Z,-6.86
2017-11-14T03:43:05.449Z,-6.86
2017-11-14T03:44:06.048Z,-6.90
2017-11-14T03:45:06.649Z,-6.79
2017-11-14T03:46:07.248Z,-6.81
2017-11-14T03:47:07.846Z,-6.75
2017-11-14T03:48:08.462Z,-6.86
2017-11-14T03:49:09.076Z,-6.87
2017-11-14T03:50:09.676Z,-6.81
2017-11-14T03:51:10.307Z,-6.86
2017-11-14T03:52:10.913Z,-6.90
2017-11-14T03:53:11.508Z,-6.87
2017-11-14T03:54:12.108Z,-6.92
2017-11-14T03:55:12.715Z,-6.86
2017-11-14T03:56:13.322Z,-6.89
2017-11-14T03:57:13.953Z,-6.87
2017-11-14T03:58:14.551Z,-6.92
2017-11-14T03:59:15.151Z,-6.87
2017-11-14T04:00:15.751Z,-6.90
2017-11-14T04:01:16.351Z,-6.93
2017-11-14T04:02:16.960Z,-6.87
2017-11-14T04:03:17.550Z,-6.93
2017-11-14T04:04:18.148Z,-6.94
2017-11-14T04:05:18.777Z,-6.93
2017-11-14T04:06:19.381Z,-6.97
2017-11-14T04:07:19.981Z,-6.92
2017-11-14T04:08:20.582Z,-6.94
2017-11-14T04:09:21.188Z,-6.94
2017-11-14T04:10:21.786Z,-6.94
2017-11-14T04:11:22.384Z,-7.03
2017-11-14T04:12:22.985Z,-7.05
2017-11-14T04:13:23.588Z,-6.97
2017-11-14T04:14:24.208Z,-6.96
2017-11-14T04:15:24.785Z,-7.03
2017-11-14T04:16:25.416Z,-6.96
2017-11-14T04:17:26.013Z,-6.97
2017-11-14T04:18:26.612Z,-6.96
2017-11-14T04:19:27.248Z,-6.96
2017-11-14T04:20:27.844Z,-6.96
2017-11-14T04:21:28.444Z,-6.99
2017-11-14T04:22:29.044Z,-6.92
2017-11-14T04:23:29.645Z,-6.96
2017-11-14T04:24:30.286Z,-6.90
2017-11-14T04:25:30.879Z,-6.97
2017-11-14T04:26:31.480Z,-6.97
2017-11-14T04:27:32.085Z,-6.93
2017-11-14T04:28:32.685Z,-6.96
2017-11-14T04:29:33.313Z,-6.87
2017-11-14T04:30:33.913Z,-6.90
2017-11-14T04:31:34.523Z,-6.89
2017-11-14T04:32:35.116Z,-6.96
2017-11-14T04:33:35.720Z,-6.94
2017-11-14T04:34:36.324Z,-6.93
2017-11-14T04:35:36.919Z,-7.00
2017-11-14T04:36:37.548Z,-6.96
2017-11-14T04:37:38.151Z,-7.04
2017-11-14T04:38:38.757Z,-6.96
2017-11-14T04:39:39.353Z,-7.00
2017-11-14T04:40:39.953Z,-6.97
2017-11-14T04:41:40.553Z,-7.05
2017-11-14T04:42:41.152Z,-7.10
2017-11-14T04:43:41.753Z,-7.07
2017-11-14T04:44:42.352Z,-7.03
2017-11-14T04:45:42.959Z,-7.11
2017-11-14T04:46:43.558Z,-7.11
2017-11-14T04:47:44.192Z,-7.00
2017-11-14T04:48:44.789Z,-6.99
2017-11-14T04:49:45.397Z,-6.93
2017-11-14T04:50:45.992Z,-7.03
2017-11-14T04:51:46.627Z,-7.03
2017-11-14T04:52:47.260Z,-7.05
2017-11-14T04:53:47.865Z,-7.10
2017-11-14T04:54:48.495Z,-7.04
2017-11-14T04:55:49.094Z,-7.07
2017-11-14T04:56:49.731Z,-7.10
2017-11-14T04:57:50.365Z,-7.13
2017-11-14T04:58:50.965Z,-7.14
2017-11-14T04:59:51.563Z,-7.08
2017-11-14T05:00:52.162Z,-7.13
2017-11-14T05:01:52.762Z,-7.15
2017-11-14T05:02:53.361Z,-7.11
2017-11-14T05:03:53.965Z,-7.10
2017-11-14T05:04:54.563Z,-7.15
2017-11-14T05:05:55.168Z,-7.15
2017-11-14T05:06:55.796Z,-7.15
2017-11-14T05:07:56.398Z,-7.11
2017-11-14T05:08:57.004Z,-7.04
2017-11-14T05:09:57.604Z,-7.21
2017-11-14T05:10:58.201Z,-7.17
2017-11-14T05:11:58.802Z,-7.23
2017-11-14T05:12:59.403Z,-7.31
2017-11-14T05:14:00.001Z,-7.31
2017-11-14T05:15:00.605Z,-7.31
2017-11-14T05:16:01.206Z,-7.29
2017-11-14T05:17:01.813Z,-7.32
2017-11-14T05:18:02.440Z,-7.35
2017-11-14T05:19:03.039Z,-7.29
2017-11-14T05:20:03.645Z,-7.31
2017-11-14T05:21:04.273Z,-7.29
2017-11-14T05:22:04.871Z,-7.31
2017-11-14T05:23:05.477Z,-7.26
2017-11-14T05:24:06.102Z,-7.36
2017-11-14T05:25:06.703Z,-7.28
2017-11-14T05:26:07.301Z,-7.25
2017-11-14T05:27:07.900Z,-7.32
2017-11-14T05:28:08.500Z,-7.28
2017-11-14T05:29:09.104Z,-7.31
2017-11-14T05:30:09.710Z,-7.31
2017-11-14T05:31:10.304Z,-7.32
2017-11-14T05:32:10.910Z,-7.32
2017-11-14T05:33:11.541Z,-7.29
2017-11-14T05:34:12.141Z,-7.28
2017-11-14T05:35:12.740Z,-7.25
2017-11-14T05:36:13.342Z,-7.14
2017-11-14T05:37:13.943Z,-7.18
2017-11-14T05:38:14.546Z,-7.14
2017-11-14T05:39:15.144Z,-7.03
2017-11-14T05:40:15.743Z,-7.04
2017-11-14T05:41:16.351Z,-7.03
2017-11-14T05:42:16.968Z,-7.00
2017-11-14T05:43:17.606Z,-7.18
2017-11-14T05:44:18.209Z,-7.11
2017-11-14T05:45:18.802Z,-7.14
2017-11-14T05:46:19.400Z,-7.23
2017-11-14T05:47:20.002Z,-7.26
2017-11-14T05:48:20.601Z,-7.29
2017-11-14T05:49:21.202Z,-7.25
2017-11-14T05:50:21.809Z,-7.28
2017-11-14T05:51:22.404Z,-7.26
2017-11-14T05:52:23.007Z,-7.29
2017-11-14T05:53:23.605Z,-7.31
2017-11-14T05:54:24.203Z,-7.28
2017-11-14T05:55:24.831Z,-7.31
2017-11-14T05:56:25.432Z,-7.29
2017-11-14T05:57:26.030Z,-7.38
2017-11-14T05:58:26.632Z,-7.26
2017-11-14T05:59:27.232Z,-7.29
2017-11-14T06:00:27.833Z,-7.28
2017-11-14T06:01:28.437Z,-7.36
2017-11-14T06:02:29.041Z,-7.35
2017-11-14T06:03:29.637Z,-7.40
2017-11-14T06:04:30.236Z,-7.47
2017-11-14T06:05:30.833Z,-7.40
2017-11-14T06:06:31.434Z,-7.43
2017-11-14T06:07:32.061Z,-7.44
2017-11-14T06:08:32.660Z,-7.49
2017-11-14T06:09:33.266Z,-7.49
2017-11-14T06:10:33.863Z,-7.52
2017-11-14T06:11:34.462Z,-7.54
2017-11-14T06:12:35.060Z,-7.58
2017-11-14T06:13:35.658Z,-7.56
2017-11-14T06:14:36.257Z,-7.53
2017-11-14T06:15:36.886Z,-7.56
2017-11-14T06:16:37.527Z,-7.52
2017-11-14T06:17:38.156Z,-7.46
2017-11-14T06:18:38.758Z,-7.43
2017-11-14T06:19:39.357Z,-7.44
2017-11-14T06:20:39.958Z,-7.42
2017-11-14T06:21:40.558Z,-7.40
2017-11-14T06:22:41.185Z,-7.40
2017-11-14T06:23:41.793Z,-7.36
2017-11-14T06:24:42.389Z,-7.32
2017-11-14T06:25:43.007Z,-7.35
2017-11-14T06:26:43.588Z,-7.25
2017-11-14T06:27:44.190Z,-7.21
2017-11-14T06:28:44.793Z,-7.26
2017-11-14T06:29:45.392Z,-7.21
2017-11-14T06:30:46.049Z,-7.31
2017-11-14T06:31:46.666Z,-7.31
2017-11-14T06:32:47.301Z,-7.31
2017-11-14T06:33:47.906Z,-7.31
2017-11-14T06:34:48.505Z,-7.38
2017-11-14T06:35:49.110Z,-7.31
2017-11-14T06:36:49.708Z,-7.38
2017-11-14T06:37:50.312Z,-7.32
2017-11-14T06:38:50.912Z,-7.32
2017-11-14T06:39:51.522Z,-7.29
2017-11-14T06:40:52.113Z,-7.28
2017-11-14T06:41:52.714Z,-7.32
2017-11-14T06:42:53.314Z,-7.28
2017-11-14T06:43:53.921Z,-7.31
2017-11-14T06:44:54.551Z,-7.25
2017-11-14T06:45:55.155Z,-7.31
2017-11-14T06:46:55.755Z,-7.32
2017-11-14T06:47:56.364Z,-7.26
2017-11-14T06:48:56.961Z,-7.32
2017-11-14T06:49:57.561Z,-7.26
2017-11-14T06:50:58.163Z,-7.31
2017-11-14T06:51:58.794Z,-7.35
2017-11-14T06:52:59.409Z,-7.31
2017-11-14T06:54:00.029Z,-7.32
2017-11-14T06:55:00.633Z,-7.23
2017-11-14T06:56:01.231Z,-7.28
2017-11-14T06:57:01.860Z,-7.26
2017-11-14T06:58:02.461Z,-7.32
2017-11-14T06:59:03.061Z,-7.31
2017-11-14T07:00:03.665Z,-7.28
2017-11-14T07:01:04.268Z,-7.21
2017-11-14T07:02:04.867Z,-7.14
2017-11-14T07:03:05.471Z,-7.14
2017-11-14T07:04:06.070Z,-7.17
2017-11-14T07:05:06.670Z,-7.17
2017-11-14T07:06:07.278Z,-7.04
2017-11-14T07:07:07.876Z,-7.00
2017-11-14T07:08:08.478Z,-7.07
2017-11-14T07:09:09.081Z,-7.15
2017-11-14T07:10:09.683Z,-7.15
2017-11-14T07:11:10.289Z,-7.13
2017-11-14T07:12:10.888Z,-7.14
2017-11-14T07:13:11.489Z,-7.18
2017-11-14T07:14:12.094Z,-7.13
2017-11-14T07:15:12.699Z,-7.03
2017-11-14T07:16:13.306Z,-7.13
2017-11-14T07:17:13.904Z,-7.04
2017-11-14T07:18:14.510Z,-7.04
2017-11-14T07:19:15.112Z,-6.99
2017-11-14T07:20:15.744Z,-7.10
2017-11-14T07:21:16.348Z,-7.03
2017-11-14T07:22:16.955Z,-7.03
2017-11-14T07:23:17.553Z,-7.03
2017-11-14T07:24:18.160Z,-7.05
2017-11-14T07:25:18.766Z,-7.03
2017-11-14T07:26:19.405Z,-7.15
2017-11-14T07:27:20.037Z,-7.15
2017-11-14T07:28:20.670Z,-7.13
2017-11-14T07:29:21.281Z,-7.18
2017-11-14T07:30:21.896Z,-7.15
2017-11-14T07:31:22.488Z,-7.14
2017-11-14T07:32:23.088Z,-7.18
2017-11-14T07:33:23.725Z,-7.11
2017-11-14T07:34:24.322Z,-7.00
2017-11-14T07:35:24.935Z,-7.00
2017-11-14T07:36:25.535Z,-7.04
2017-11-14T07:37:26.139Z,-7.10
2017-11-14T07:38:26.737Z,-7.03
2017-11-14T07:39:27.347Z,-7.00
2017-11-14T07:40:27.943Z,-7.05
2017-11-14T07:41:28.552Z,-7.10
2017-11-14T07:42:29.150Z,-7.13
2017-11-14T07:43:29.754Z,-6.93
2017-11-14T07:44:30.356Z,-7.05
2017-11-14T07:45:30.988Z,-6.99
2017-11-14T07:46:31.595Z,-6.99
2017-11-14T07:47:32.193Z,-6.92
2017-11-14T07:48:32.797Z,-6.93
2017-11-14T07:49:33.399Z,-6.97
2017-11-14T07:50:33.999Z,-6.94
2017-11-14T07:51:34.601Z,-6.99
2017-11-14T07:52:35.205Z,-6.92
2017-11-14T07:53:35.806Z,-6.94
2017-11-14T07:54:36.437Z,-6.87
2017-11-14T07:55:37.038Z,-6.97
2017-11-14T07:56:37.646Z,-6.93
2017-11-14T07:57:38.247Z,-6.94
2017-11-14T07:58:38.849Z,-6.99
2017-11-14T07:59:39.452Z,-6.93
2017-11-14T08:00:40.056Z,-6.97
2017-11-14T08:01:40.659Z,-6.90
2017-11-14T08:02:41.264Z,-6.86
2017-11-14T08:03:41.898Z,-6.75
2017-11-14T08:04:42.503Z,-6.74
2017-11-14T08:05:43.105Z,-6.60
2017-11-14T08:06:43.714Z,-6.52
2017-11-14T08:07:44.314Z,-6.42
2017-11-14T08:08:44.920Z,-6.24
2017-11-14T08:09:45.530Z,-6.15
2017-11-14T08:10:46.133Z,-6.13
2017-11-14T08:11:46.735Z,-5.95
2017-11-14T08:12:47.336Z,-5.86
2017-11-14T08:13:47.942Z,-5.74
2017-11-14T08:14:48.550Z,-5.67
2017-11-14T08:15:49.151Z,-5.49
2017-11-14T08:16:49.756Z,-5.38
2017-11-14T08:17:50.359Z,-5.33
2017-11-14T08:18:50.965Z,-5.19
2017-11-14T08:19:51.570Z,-5.06
2017-11-14T08:20:52.175Z,-4.98
2017-11-14T08:21:52.778Z,-4.98
2017-11-14T08:22:53.382Z,-4.88
2017-11-14T08:23:53.992Z,-4.79
2017-11-14T08:24:54.596Z,-4.78
2017-11-14T08:25:55.197Z,-4.71
2017-11-14T08:26:55.803Z,-4.59
2017-11-14T08:27:56.412Z,-4.57
2017-11-14T08:28:57.016Z,-4.53
2017-11-14T08:29:57.622Z,-4.60
2017-11-14T08:30:58.228Z,-4.38
2017-11-14T08:31:58.839Z,-4.38
2017-11-14T08:32:59.444Z,-4.25
2017-11-14T08:34:00.057Z,-4.25
2017-11-14T08:35:00.660Z,-3.99
2017-11-14T08:36:01.265Z,-3.98
2017-11-14T08:37:01.876Z,-3.93
2017-11-14T08:38:02.483Z,-3.96
2017-11-14T08:39:03.091Z,-3.88
2017-11-14T08:40:03.694Z,-3.78
2017-11-14T08:41:04.299Z,-3.75
2017-11-14T08:42:04.913Z,-3.75
2017-11-14T08:43:05.514Z,-3.69
2017-11-14T08:44:06.122Z,-3.58
2017-11-14T08:45:06.757Z,-3.52
2017-11-14T08:46:07.363Z,-3.40
2017-11-14T08:47:07.980Z,-3.41
2017-11-14T08:48:08.612Z,-3.37
2017-11-14T08:49:09.219Z,-3.28
2017-11-14T08:50:09.858Z,-3.16
2017-11-14T08:51:10.465Z,-3.07
2017-11-14T08:52:11.071Z,-2.95
2017-11-14T08:53:11.677Z,-2.95
2017-11-14T08:54:12.283Z,-2.95
2017-11-14T08:55:12.895Z,-2.88
2017-11-14T08:56:13.500Z,-2.77
2017-11-14T08:57:14.110Z,-2.71
2017-11-14T08:58:14.720Z,-2.65
2017-11-14T08:59:15.323Z,-2.65
2017-11-14T09:00:15.975Z,-2.59
2017-11-14T09:01:16.572Z,-2.62
2017-11-14T09:02:17.179Z,-2.58
2017-11-14T09:03:17.788Z,-2.48
2017-11-14T09:04:18.405Z,-2.35
2017-11-14T09:05:19.005Z,-2.35
2017-11-14T09:06:19.644Z,-2.42
2017-11-14T09:07:20.252Z,-2.28
2017-11-14T09:08:20.860Z,-2.26
2017-11-14T09:09:21.467Z,-2.21
2017-11-14T09:10:22.080Z,-2.12
2017-11-14T09:11:22.686Z,-2.21
2017-11-14T09:12:23.293Z,-2.12
2017-11-14T09:13:23.901Z,-2.12
2017-11-14T09:14:24.509Z,-1.92
2017-11-14T09:15:25.117Z,-1.83
2017-11-14T09:16:25.726Z,-1.71
2017-11-14T09:17:26.365Z,-1.65
2017-11-14T09:18:26.981Z,-1.62
2017-11-14T09:19:27.589Z,-1.64
2017-11-14T09:20:28.195Z,-1.53
2017-11-14T09:21:28.804Z,-1.48
2017-11-14T09:22:29.441Z,-1.32
2017-11-14T09:23:30.051Z,-1.26
2017-11-14T09:24:30.660Z,-1.19
2017-11-14T09:25:31.267Z,-1.46
2017-11-14T09:26:31.877Z,-1.62
2017-11-14T09:27:32.486Z,-1.66
2017-11-14T09:28:33.100Z,-1.66
2017-11-14T09:29:33.704Z,-1.48
2017-11-14T09:30:34.311Z,-1.48
2017-11-14T09:31:34.950Z,-1.46
2017-11-14T09:32:35.560Z,-1.44
2017-11-14T09:33:36.170Z,-1.35
2017-11-14T09:34:36.780Z,-1.17
2017-11-14T09:35:37.404Z,-0.93
2017-11-14T09:36:38.004Z,-0.70
2017-11-14T09:37:38.616Z,-0.53
2017-11-14T09:38:39.228Z,-0.38
2017-11-14T09:39:39.837Z,-0.13
2017-11-14T09:40:40.469Z,0.15
2017-11-14T09:41:41.053Z,0.29
2017-11-14T09:42:41.701Z,0.43
2017-11-14T09:43:42.301Z,0.37
2017-11-14T09:44:42.910Z,0.40
2017-11-14T09:45:43.519Z,0.43
2017-11-14T09:46:44.128Z,0.55
2017-11-14T09:47:44.789Z,0.60
2017-11-14T09:48:45.397Z,0.58
2017-11-14T09:49:46.041Z,0.44
2017-11-14T09:50:46.650Z,0.56
2017-11-14T09:51:47.259Z,0.76
2017-11-14T09:52:47.871Z,0.81
2017-11-14T09:53:48.486Z,0.84
2017-11-14T09:54:49.091Z,1.13
2017-11-14T09:55:49.731Z,1.23
2017-11-14T09:56:50.347Z,1.44
2017-11-14T09:57:50.999Z,1.63
2017-11-14T09:58:51.608Z,1.67
2017-11-14T09:59:52.221Z,1.68
2017-11-14T10:00:52.862Z,1.67
2017-11-14T10:01:53.469Z,1.71
2017-11-14T10:02:54.085Z,1.71
2017-11-14T10:03:54.699Z,1.85
2017-11-14T10:04:55.304Z,1.95
2017-11-14T10:05:55.947Z,1.92
2017-11-14T10:06:56.557Z,2.02
2017-11-14T10:07:57.169Z,2.13
2017-11-14T10:08:57.777Z,2.13
2017-11-14T10:09:58.389Z,2.22
2017-11-14T10:10:59.000Z,2.10
2017-11-14T10:11:59.610Z,2.14
2017-11-14T10:13:00.220Z,2.25
2017-11-14T10:14:00.835Z,2.26
2017-11-14T10:15:01.474Z,2.18
2017-11-14T10:16:02.098Z,2.10
2017-11-14T10:17:02.700Z,1.85
2017-11-14T10:18:03.315Z,1.92
2017-11-14T10:19:03.927Z,1.99
2017-11-14T10:20:04.540Z,2.33
2017-11-14T10:21:05.151Z,2.47
2017-11-14T10:22:05.793Z,2.56
2017-11-14T10:23:06.453Z,2.57
2017-11-14T10:24:07.064Z,2.71
2017-11-14T10:25:07.673Z,2.87
2017-11-14T10:26:08.289Z,3.00
2017-11-14T10:27:08.895Z,2.90
2017-11-14T10:28:09.557Z,2.90
2017-11-14T10:29:10.198Z,2.92
2017-11-14T10:30:10.814Z,2.74
2017-11-14T10:31:11.424Z,2.61
2017-11-14T10:32:12.045Z,2.53
2017-11-14T10:33:12.649Z,2.42
2017-11-14T10:34:13.261Z,2.47
2017-11-14T10:35:13.872Z,2.61
2017-11-14T10:36:14.494Z,2.57
2017-11-14T10:37:15.138Z,2.54
2017-11-14T10:38:15.782Z,2.69
2017-11-14T10:39:16.394Z,2.83
2017-11-14T10:40:17.005Z,3.14
2017-11-14T10:41:17.623Z,3.45
2017-11-14T10:42:18.228Z,3.92
2017-11-14T10:43:18.842Z,3.88
2017-11-14T10:44:19.455Z,3.91
2017-11-14T10:45:20.066Z,3.95
2017-11-14T10:46:20.682Z,3.91
2017-11-14T10:47:21.293Z,3.83
2017-11-14T10:48:21.905Z,3.65
2017-11-14T10:49:22.518Z,3.51
2017-11-14T10:50:23.132Z,3.60
2017-11-14T10:51:23.742Z,3.59
2017-11-14T10:52:24.363Z,3.78
2017-11-14T10:53:24.967Z,4.13
2017-11-14T10:54:25.580Z,4.41
2017-11-14T10:55:26.192Z,4.84
2017-11-14T10:56:26.808Z,5.20
2017-11-14T10:57:27.419Z,5.18
2017-11-14T10:58:28.032Z,5.07
2017-11-14T10:59:28.644Z,4.80
2017-11-14T11:00:29.256Z,4.71
2017-11-14T11:01:29.869Z,4.37
2017-11-14T11:02:30.483Z,4.37
2017-11-14T11:03:31.102Z,4.45
2017-11-14T11:04:31.710Z,4.52
2017-11-14T11:05:32.326Z,4.52
2017-11-14T11:06:32.942Z,4.53
2017-11-14T11:07:33.589Z,4.34
2017-11-14T11:08:34.200Z,4.41
2017-11-14T11:09:34.815Z,4.41
2017-11-14T11:10:35.427Z,4.84
2017-11-14T11:11:36.042Z,5.15
2017-11-14T11:12:36.661Z,5.46
2017-11-14T11:13:37.272Z,5.79
2017-11-14T11:14:37.884Z,6.14
2017-11-14T11:15:38.502Z,6.07
2017-11-14T11:16:39.114Z,5.89
2017-11-14T11:17:39.728Z,5.90
2017-11-14T11:18:40.340Z,5.94
2017-11-14T11:19:40.954Z,5.90
2017-11-14T11:20:41.566Z,5.69
2017-11-14T11:21:42.216Z,5.57
2017-11-14T11:22:42.830Z,5.39
2017-11-14T11:23:43.441Z,5.46
2017-11-14T11:24:44.055Z,5.73
2017-11-14T11:25:44.675Z,5.99
2017-11-14T11:26:45.284Z,6.26
2017-11-14T11:27:45.898Z,6.66
2017-11-14T11:28:46.518Z,6.95
2017-11-14T11:29:47.131Z,7.06
2017-11-14T11:30:47.746Z,6.89
2017-11-14T11:31:48.391Z,6.85
2017-11-14T11:32:49.004Z,6.75
2017-11-14T11:33:49.621Z,6.57
2017-11-14T11:34:50.235Z,6.42
2017-11-14T11:35:50.849Z,6.28
2017-11-14T11:36:51.462Z,6.22
2017-11-14T11:37:52.077Z,6.22
2017-11-14T11:38:52.691Z,6.39
2017-11-14T11:39:53.305Z,6.54
2017-11-14T11:40:53.920Z,6.52
2017-11-14T11:41:54.539Z,6.41
2017-11-14T11:42:55.152Z,6.39
2017-11-14T11:43:55.804Z,6.49
2017-11-14T11:44:56.448Z,6.33
2017-11-14T11:45:57.069Z,6.14
2017-11-14T11:46:57.684Z,5.76
2017-11-14T11:47:58.296Z,5.71
2017-11-14T11:48:58.909Z,5.62
2017-11-14T11:49:59.554Z,5.66
2017-11-14T11:51:00.170Z,5.76
2017-11-14T11:52:00.790Z,6.14
2017-11-14T11:53:01.408Z,6.42
2017-11-14T11:54:02.017Z,6.59
2017-11-14T11:55:02.633Z,6.62
2017-11-14T11:56:03.248Z,6.96
2017-11-14T11:57:03.862Z,7.18
2017-11-14T11:58:04.477Z,7.56
2017-11-14T11:59:05.092Z,7.61
2017-11-14T12:00:05.712Z,7.58
2017-11-14T12:01:06.326Z,7.23
2017-11-14T12:02:06.972Z,7.13
2017-11-14T12:03:07.591Z,7.10
2017-11-14T12:04:08.203Z,7.10
2017-11-14T12:05:08.851Z,7.02
2017-11-14T12:06:09.471Z,6.89
2017-11-14T12:07:10.118Z,6.81
2017-11-14T12:08:10.730Z,6.77
2017-11-14T12:09:11.344Z,6.88
2017-11-14T12:10:11.961Z,6.97
2017-11-14T12:11:12.580Z,7.15
2017-11-14T12:12:13.189Z,7.05
2017-11-14T12:13:13.807Z,6.93
2017-11-14T12:14:14.421Z,6.67
2017-11-14T12:15:15.068Z,6.63
2017-11-14T12:16:15.685Z,6.69
2017-11-14T12:17:16.301Z,6.75
2017-11-14T12:18:16.915Z,6.75
2017-11-14T12:19:17.533Z,6.70
2017-11-14T12:20:18.147Z,6.51
2017-11-14T12:21:18.775Z,6.69
2017-11-14T12:22:19.380Z,6.82
2017-11-14T12:23:20.000Z,6.96
2017-11-14T12:24:20.651Z,6.97
2017-11-14T12:25:21.300Z,7.05
2017-11-14T12:26:21.918Z,7.00
2017-11-14T12:27:22.533Z,7.14
2017-11-14T12:28:23.178Z,7.43
2017-11-14T12:29:23.822Z,7.79
2017-11-14T12:30:24.440Z,8.09
2017-11-14T12:31:25.053Z,8.49
2017-11-14T12:32:25.667Z,8.69
2017-11-14T12:33:26.284Z,8.88
2017-11-14T12:34:26.904Z,8.95
2017-11-14T12:35:27.517Z,9.08
2017-11-14T12:36:28.133Z,9.29
2017-11-14T12:37:28.754Z,9.41
2017-11-14T12:38:29.368Z,9.66
2017-11-14T12:39:29.983Z,9.64
2017-11-14T12:40:30.598Z,9.62
2017-11-14T12:41:31.218Z,9.50
2017-11-14T12:42:31.839Z,9.32
2017-11-14T12:43:32.452Z,9.43
2017-11-14T12:44:33.068Z,9.62
2017-11-14T12:45:33.683Z,9.91
2017-11-14T12:46:34.303Z,10.20
2017-11-14T12:47:34.927Z,10.44
2017-11-14T12:48:35.573Z,10.64
2017-11-14T12:49:36.191Z,10.76
2017-11-14T12:50:36.807Z,10.97
2017-11-14T12:51:37.429Z,11.12
2017-11-14T12:52:38.054Z,11.32
2017-11-14T12:53:38.666Z,11.48
2017-11-14T12:54:39.288Z,11.59
2017-11-14T12:55:39.906Z,11.54
2017-11-14T12:56:40.536Z,11.52
2017-11-14T12:57:41.151Z,11.37
2017-11-14T12:58:41.818Z,11.26
2017-11-14T12:59:42.418Z,10.86
2017-11-14T13:00:43.039Z,10.75
2017-11-14T13:01:43.656Z,10.41
2017-11-14T13:02:44.275Z,10.20
2017-11-14T13:03:44.893Z,9.98
2017-11-14T13:04:45.510Z,9.89
2017-11-14T13:05:46.142Z,9.79
2017-11-14T13:06:46.745Z,9.69
2017-11-14T13:07:47.363Z,9.62
2017-11-14T13:08:47.980Z,9.48
2017-11-14T13:09:48.598Z,9.19
2017-11-14T13:10:49.217Z,9.13
2017-11-14T13:11:49.834Z,9.31
2017-11-14T13:12:50.486Z,9.29
2017-11-14T13:13:51.100Z,9.26
2017-11-14T13:14:51.719Z,9.47
2017-11-14T13:15:52.336Z,9.77
2017-11-14T13:16:52.984Z,10.02
2017-11-14T13:17:53.633Z,10.25
2017-11-14T13:18:54.253Z,10.60
2017-11-14T13:19:54.876Z,10.90
2017-11-14T13:20:55.497Z,11.18
2017-11-14T13:21:56.145Z,11.33
2017-11-14T13:22:56.767Z,11.45
2017-11-14T13:23:57.384Z,11.30
2017-11-14T13:24:58.009Z,11.04
2017-11-14T13:25:58.657Z,10.69
2017-11-14T13:26:59.281Z,10.61
2017-11-14T13:27:59.894Z,10.69
2017-11-14T13:29:00.550Z,11.02
2017-11-14T13:30:01.168Z,10.97
2017-11-14T13:31:01.795Z,11.05
2017-11-14T13:32:02.416Z,10.93
2017-11-14T13:33:03.039Z,10.99
2017-11-14T13:34:03.653Z,10.76
2017-11-14T13:35:04.275Z,10.71
2017-11-14T13:36:04.898Z,10.44
2017-11-14T13:37:05.521Z,10.10
2017-11-14T13:38:06.146Z,9.91
2017-11-14T13:39:06.759Z,9.74
2017-11-14T13:40:07.374Z,9.73
2017-11-14T13:41:07.993Z,9.76
2017-11-14T13:42:08.616Z,9.68
2017-11-14T13:43:09.232Z,9.61
2017-11-14T13:44:09.855Z,9.50
2017-11-14T13:45:10.502Z,9.29
2017-11-14T13:46:11.122Z,9.19
2017-11-14T13:47:11.745Z,9.08
2017-11-14T13:48:12.391Z,9.08
2017-11-14T13:49:13.009Z,9.25
2017-11-14T13:50:13.631Z,9.36
2017-11-14T13:51:14.252Z,9.37
2017-11-14T13:52:14.880Z,9.36
2017-11-14T13:53:15.489Z,9.37
2017-11-14T13:54:16.103Z,9.13
2017-11-14T13:55:16.721Z,8.85
2017-11-14T13:56:17.340Z,8.63
2017-11-14T13:57:17.956Z,8.70
2017-11-14T13:58:18.578Z,8.63
2017-11-14T13:59:19.198Z,8.87
2017-11-14T14:00:19.816Z,9.21
2017-11-14T14:01:20.436Z,9.68
2017-11-14T14:02:21.054Z,9.87
2017-11-14T14:03:21.668Z,10.13
2017-11-14T14:04:22.285Z,10.30
2017-11-14T14:05:22.940Z,10.16
2017-11-14T14:06:23.561Z,10.09
2017-11-14T14:07:24.178Z,9.92
2017-11-14T14:08:24.798Z,9.84